Time;durP1;ratioP1;P1;durP2;ratioP2;P2;SDS_P1;SDS_P2;PMS_P1;PMS_P2;Temp;Humidity;BMP_temperature;BMP_pressure;BME280_temperature;BME280_humidity;BME280_pressure;Samples;Min_cycle;Max_cycle;Signal;HPM_P1;HPM_P2
2022/06/10 00:00:37;;;;;;;5.60;3.47;;;13.00;99.90;;;;;;5027441;28;21215;-79
2022/06/10 00:03:04;;;;;;;2.90;2.70;;;13.00;99.90;;;;;;5028119;28;20514;-79
2022/06/10 00:05:36;;;;;;;3.73;3.43;;;12.90;99.90;;;;;;5027832;28;20453;-79
2022/06/10 00:08:04;;;;;;;3.33;3.03;;;12.90;99.90;;;;;;5027009;28;20892;-79
2022/06/10 00:10:32;;;;;;;3.30;3.10;;;12.80;99.90;;;;;;5025868;28;20472;-79
2022/06/10 00:12:59;;;;;;;3.67;3.30;;;12.80;99.90;;;;;;5026749;28;20450;-80
2022/06/10 00:15:26;;;;;;;3.63;3.30;;;12.80;99.90;;;;;;5025429;28;20458;-79
2022/06/10 00:17:53;;;;;;;4.20;3.90;;;12.70;99.90;;;;;;5027484;28;20454;-79
2022/06/10 00:20:25;;;;;;;4.67;3.00;;;12.70;99.90;;;;;;5025724;28;20520;-80
2022/06/10 00:22:52;;;;;;;4.93;4.50;;;12.60;99.90;;;;;;5027731;28;20485;-79
2022/06/10 00:25:20;;;;;;;3.87;3.50;;;12.50;99.90;;;;;;5027209;28;20456;-79
2022/06/10 00:27:48;;;;;;;6.10;3.40;;;12.50;99.90;;;;;;5027914;28;20503;-79
2022/06/10 00:30:16;;;;;;;4.10;2.83;;;12.60;99.90;;;;;;5025943;28;20474;-79
2022/06/10 00:32:43;;;;;;;3.47;3.17;;;12.70;99.90;;;;;;5027784;28;20442;-79
2022/06/10 00:35:11;;;;;;;4.63;3.80;;;12.70;99.90;;;;;;5026534;28;20452;-79
2022/06/10 00:37:38;;;;;;;3.90;3.60;;;12.70;99.90;;;;;;5026074;28;20446;-79
2022/06/10 00:40:07;;;;;;;6.20;3.37;;;12.80;99.90;;;;;;5026836;28;20477;-79
2022/06/10 00:42:35;;;;;;;3.87;3.47;;;12.90;99.90;;;;;;5027568;28;20497;-79
2022/06/10 00:45:05;;;;;;;4.67;3.53;;;12.90;99.90;;;;;;5027752;28;20530;-80
2022/06/10 00:47:35;;;;;;;3.37;3.17;;;13.00;99.90;;;;;;5026523;28;20460;-79
2022/06/10 00:50:27;;;;;;;3.73;3.43;;;13.00;99.90;;;;;;5026341;28;20474;-79
2022/06/10 00:53:00;;;;;;;3.37;3.10;;;12.90;99.90;;;;;;5027711;28;20452;-79
2022/06/10 00:55:29;;;;;;;3.93;3.60;;;12.80;99.90;;;;;;5027358;28;20476;-79
2022/06/10 00:58:02;;;;;;;3.53;3.23;;;12.80;99.90;;;;;;5027773;28;20488;-78
2022/06/10 01:00:30;;;;;;;2.93;2.30;;;12.80;99.90;;;;;;5026674;28;20481;-79
2022/06/10 01:02:57;;;;;;;6.13;3.27;;;12.80;99.90;;;;;;5027525;28;20492;-79
2022/06/10 01:05:27;;;;;;;3.53;2.83;;;12.80;99.90;;;;;;5026820;28;20460;-79
2022/06/10 01:07:58;;;;;;;4.00;2.90;;;12.80;99.90;;;;;;5026301;28;20455;-80
2022/06/10 01:10:26;;;;;;;3.50;2.70;;;12.80;99.90;;;;;;5025226;28;20483;-79
2022/06/10 01:13:04;;;;;;;3.80;3.10;;;12.70;99.90;;;;;;5026843;28;20442;-79
2022/06/10 01:15:37;;;;;;;3.53;3.10;;;12.70;99.90;;;;;;5026557;28;20460;-80
2022/06/10 01:18:15;;;;;;;3.30;3.10;;;12.70;99.90;;;;;;5025999;28;20456;-79
2022/06/10 01:20:52;;;;;;;4.50;3.63;;;12.60;99.90;;;;;;5025502;28;20457;-79
2022/06/10 01:23:50;;;;;;;3.90;3.60;;;12.50;99.90;;;;;;5026104;28;20484;-79
2022/06/10 01:29:52;;;;;;;6.17;4.00;;;12.50;99.90;;;;;;5026815;28;20464;-80
2022/06/10 01:32:29;;;;;;;4.10;3.67;;;12.40;99.90;;;;;;5025636;28;20460;-79
2022/06/10 01:35:04;;;;;;;4.50;4.10;;;12.40;99.90;;;;;;5024971;28;20460;-78
2022/06/10 01:37:39;;;;;;;4.33;4.03;;;12.30;99.90;;;;;;5025340;28;20943;-79
2022/06/10 01:40:15;;;;;;;4.53;3.10;;;12.20;99.90;;;;;;5025081;28;20467;-79
2022/06/10 01:42:50;;;;;;;3.50;3.20;;;12.20;99.90;;;;;;5025076;28;20492;-79
2022/06/10 01:45:25;;;;;;;4.50;3.57;;;12.30;99.90;;;;;;5026091;28;20452;-79
2022/06/10 01:47:58;;;;;;;4.93;3.90;;;12.20;99.90;;;;;;5025308;28;20463;-79
2022/06/10 01:50:31;;;;;;;4.80;3.10;;;12.20;99.90;;;;;;5025641;28;20461;-79
2022/06/10 01:53:01;;;;;;;8.33;4.23;;;12.20;99.90;;;;;;5025077;28;20976;-79
2022/06/10 01:55:32;;;;;;;5.60;3.90;;;12.10;99.90;;;;;;5025967;28;20441;-79
2022/06/10 01:58:07;;;;;;;6.00;3.87;;;12.20;99.90;;;;;;5025560;28;20464;-79
2022/06/10 02:00:39;;;;;;;4.07;3.53;;;12.10;99.90;;;;;;5020016;28;20476;-79
2022/06/10 02:03:13;;;;;;;5.10;3.47;;;12.00;99.90;;;;;;5016733;28;20489;-79
2022/06/10 02:05:44;;;;;;;5.30;4.03;;;12.00;99.90;;;;;;5017017;28;20457;-79
2022/06/10 02:08:14;;;;;;;3.27;3.07;;;12.00;99.90;;;;;;5017094;28;20824;-79
2022/06/10 02:10:55;;;;;;;5.57;3.80;;;11.90;99.90;;;;;;5016863;28;20485;-79
2022/06/10 02:13:26;;;;;;;4.80;3.67;;;11.80;99.90;;;;;;5016501;28;20503;-79
2022/06/10 02:15:55;;;;;;;4.20;3.90;;;11.80;99.90;;;;;;5016662;28;20457;-79
2022/06/10 02:18:28;;;;;;;6.53;3.53;;;11.80;99.90;;;;;;5016491;28;20580;-79
2022/06/10 02:21:00;;;;;;;4.87;4.27;;;11.70;99.90;;;;;;5016892;28;20990;-79
2022/06/10 02:23:31;;;;;;;4.87;4.47;;;11.70;99.90;;;;;;5020193;28;20488;-79
2022/06/10 02:25:59;;;;;;;5.73;4.30;;;11.60;99.90;;;;;;5025614;28;20456;-79
2022/06/10 02:28:32;;;;;;;7.13;5.70;;;11.70;99.90;;;;;;5025402;28;20842;-79
2022/06/10 02:31:04;;;;;;;5.50;3.90;;;11.70;99.90;;;;;;5024758;28;20500;-79
2022/06/10 02:33:32;;;;;;;4.90;4.50;;;11.70;99.90;;;;;;5024711;28;20450;-79
2022/06/10 02:36:05;;;;;;;3.97;3.67;;;11.70;99.90;;;;;;5025422;28;20453;-79
2022/06/10 02:38:41;;;;;;;6.20;3.70;;;11.70;99.90;;;;;;5025606;28;20453;-80
2022/06/10 02:41:17;;;;;;;5.30;3.63;;;11.70;99.90;;;;;;5023522;28;20472;-79
2022/06/10 02:43:50;;;;;;;4.10;3.80;;;11.70;99.90;;;;;;5024048;28;20496;-79
2022/06/10 02:46:23;;;;;;;4.27;3.80;;;11.70;99.90;;;;;;5024854;28;20449;-79
2022/06/10 02:48:59;;;;;;;5.07;4.13;;;11.70;99.90;;;;;;5005884;28;20977;-79
2022/06/10 02:51:27;;;;;;;4.43;4.13;;;11.70;99.90;;;;;;5005466;28;20958;-79
2022/06/10 02:53:54;;;;;;;3.50;3.20;;;11.70;99.90;;;;;;5024716;28;20476;-79
2022/06/10 02:56:23;;;;;;;5.93;4.97;;;11.70;99.90;;;;;;5024871;28;20457;-79
2022/06/10 03:01:48;;;;;;;4.20;3.73;;;11.70;99.90;;;;;;5028533;28;20487;-80
2022/06/10 03:04:23;;;;;;;4.40;3.80;;;11.70;99.90;;;;;;5028386;28;20479;-79
2022/06/10 03:07:07;;;;;;;5.57;4.87;;;11.70;99.90;;;;;;5025968;28;20436;-79
2022/06/10 03:09:45;;;;;;;3.93;3.63;;;11.70;99.90;;;;;;5027777;28;20465;-79
2022/06/10 03:12:20;;;;;;;4.83;4.27;;;11.70;99.90;;;;;;5027577;28;20449;-79
2022/06/10 03:14:58;;;;;;;4.20;3.90;;;11.60;99.90;;;;;;5027133;28;20433;-79
2022/06/10 03:17:36;;;;;;;4.13;3.60;;;11.60;99.90;;;;;;5026521;28;20454;-80
2022/06/10 03:20:15;;;;;;;4.37;4.00;;;11.60;99.90;;;;;;5025961;28;20466;-79
2022/06/10 03:23:08;;;;;;;4.50;4.10;;;11.60;99.90;;;;;;5026061;28;20449;-79
2022/06/10 03:25:39;;;;;;;6.07;5.33;;;11.60;99.90;;;;;;5026832;28;20451;-79
2022/06/10 03:28:13;;;;;;;6.10;4.70;;;11.60;99.90;;;;;;5028015;28;20450;-79
2022/06/10 03:30:52;;;;;;;4.93;3.80;;;11.50;99.90;;;;;;5025882;28;20468;-79
2022/06/10 03:33:24;;;;;;;4.60;4.30;;;11.50;99.90;;;;;;5024569;28;20436;-79
2022/06/10 03:35:56;;;;;;;4.90;4.37;;;11.50;99.90;;;;;;5028092;28;20433;-79
2022/06/10 03:38:23;;;;;;;4.63;4.13;;;11.50;99.90;;;;;;5028005;28;20445;-79
2022/06/10 03:40:55;;;;;;;4.37;4.03;;;11.50;99.90;;;;;;5027864;28;20460;-79
2022/06/10 03:43:24;;;;;;;5.50;4.13;;;11.50;99.90;;;;;;5027869;28;20484;-79
2022/06/10 03:45:55;;;;;;;4.47;4.10;;;11.50;99.90;;;;;;5028532;28;20445;-79
2022/06/10 03:48:24;;;;;;;6.47;4.97;;;11.40;99.90;;;;;;5027964;28;20453;-79
2022/06/10 03:50:52;;;;;;;4.43;4.00;;;11.40;99.90;;;;;;5027674;28;20483;-79
2022/06/10 03:53:21;;;;;;;4.63;3.83;;;11.20;99.90;;;;;;5027957;28;20460;-79
2022/06/10 03:55:48;;;;;;;5.87;5.07;;;11.20;99.90;;;;;;5028611;28;20456;-79
2022/06/10 03:58:15;;;;;;;3.93;3.60;;;11.30;99.90;;;;;;5027754;28;20449;-79
2022/06/10 04:00:43;;;;;;;6.77;3.90;;;11.30;99.90;;;;;;5027958;28;20483;-79
2022/06/10 04:03:10;;;;;;;5.10;3.47;;;11.40;99.90;;;;;;5029299;28;20465;-79
2022/06/10 04:05:37;;;;;;;5.07;4.67;;;11.40;99.90;;;;;;5027802;28;20460;-79
2022/06/10 04:08:06;;;;;;;5.57;4.70;;;11.40;99.90;;;;;;5028191;28;20461;-79
2022/06/10 04:10:33;;;;;;;3.80;3.50;;;11.40;99.90;;;;;;5027317;28;20472;-79
2022/06/10 04:13:00;;;;;;;5.33;4.57;;;11.50;99.90;;;;;;5027708;28;20445;-79
2022/06/10 04:15:27;;;;;;;6.37;4.60;;;11.50;99.90;;;;;;5027269;28;20456;-79
2022/06/10 04:17:58;;;;;;;8.33;4.40;;;11.60;99.90;;;;;;5027733;28;20460;-79
2022/06/10 04:20:27;;;;;;;5.20;4.70;;;11.60;99.90;;;;;;5027424;28;20477;-79
2022/06/10 04:22:54;;;;;;;5.90;5.07;;;11.60;99.90;;;;;;5027624;28;20441;-79
2022/06/10 04:25:23;;;;;;;5.57;5.07;;;11.70;99.90;;;;;;5026331;28;20485;-79
2022/06/10 04:27:50;;;;;;;5.97;4.43;;;11.70;99.90;;;;;;5027545;28;20806;-80
2022/06/10 04:30:23;;;;;;;7.60;5.47;;;11.60;99.90;;;;;;5026723;28;20469;-79
2022/06/10 04:32:51;;;;;;;7.90;5.00;;;11.70;99.90;;;;;;5027427;28;20465;-79
2022/06/10 04:35:18;;;;;;;5.93;4.43;;;11.80;99.90;;;;;;5027690;28;20460;-79
2022/06/10 04:37:45;;;;;;;5.20;4.80;;;11.70;99.90;;;;;;5028261;28;20460;-79
2022/06/10 04:40:14;;;;;;;6.03;4.90;;;11.80;99.90;;;;;;5027135;28;20477;-80
2022/06/10 04:42:42;;;;;;;9.70;4.90;;;11.80;99.90;;;;;;5027144;28;20496;-80
2022/06/10 04:45:09;;;;;;;5.47;4.50;;;11.70;99.90;;;;;;5026341;28;20481;-79
2022/06/10 04:47:36;;;;;;;4.90;4.50;;;11.70;99.90;;;;;;5026237;28;20463;-79
2022/06/10 04:50:04;;;;;;;4.87;4.47;;;11.70;99.90;;;;;;5025906;28;20476;-80
2022/06/10 04:52:31;;;;;;;5.73;4.73;;;11.80;99.90;;;;;;5026426;28;20475;-79
2022/06/10 04:54:58;;;;;;;4.33;3.93;;;11.70;99.90;;;;;;5026134;28;20446;-80
2022/06/10 04:57:24;;;;;;;5.93;4.43;;;11.80;99.90;;;;;;5026160;28;20457;-80
2022/06/10 04:59:53;;;;;;;6.30;4.80;;;11.80;99.90;;;;;;5026419;28;20540;-79
2022/06/10 05:02:19;;;;;;;4.37;4.07;;;11.80;99.90;;;;;;5026212;28;20449;-79
2022/06/10 05:04:46;;;;;;;4.63;4.23;;;11.90;99.90;;;;;;5026064;28;20486;-80
2022/06/10 05:07:13;;;;;;;4.73;4.23;;;12.00;99.90;;;;;;5026897;28;20450;-80
2022/06/10 05:09:40;;;;;;;7.37;4.27;;;12.10;99.90;;;;;;5025892;28;20499;-80
2022/06/10 05:12:07;;;;;;;6.57;4.80;;;12.10;99.90;;;;;;5026286;28;20452;-80
2022/06/10 05:14:35;;;;;;;7.90;3.93;;;12.20;99.90;;;;;;5027498;28;20453;-80
2022/06/10 05:17:04;;;;;;;6.43;4.30;;;12.30;99.90;;;;;;5025756;28;20544;-80
2022/06/10 05:19:31;;;;;;;4.20;3.80;;;12.30;99.90;;;;;;5026889;28;20782;-80
2022/06/10 05:21:58;;;;;;;4.40;4.10;;;12.40;99.90;;;;;;5026450;28;20454;-80
2022/06/10 05:24:25;;;;;;;5.97;4.50;;;12.60;99.90;;;;;;5027441;28;20981;-80
2022/06/10 05:26:52;;;;;;;6.70;3.73;;;12.60;99.90;;;;;;5027565;28;20459;-80
2022/06/10 05:29:18;;;;;;;4.13;3.80;;;12.70;99.90;;;;;;5026837;28;20477;-80
2022/06/10 05:31:45;;;;;;;3.90;3.60;;;12.70;99.90;;;;;;5026554;28;20450;-80
2022/06/10 05:37:09;;;;;;;4.13;3.00;;;12.80;99.90;;;;;;4985442;28;20447;-80
2022/06/10 05:39:36;;;;;;;3.30;3.10;;;12.90;99.90;;;;;;5016489;28;20465;-80
2022/06/10 05:42:06;;;;;;;3.97;3.67;;;13.00;99.90;;;;;;5026184;28;20446;-80
2022/06/10 05:44:33;;;;;;;4.40;3.00;;;13.10;99.90;;;;;;5026853;28;20553;-80
2022/06/10 05:47:01;;;;;;;4.77;3.50;;;13.30;99.90;;;;;;5026231;28;20807;-80
2022/06/10 05:49:29;;;;;;;5.50;3.43;;;13.40;99.90;;;;;;5026773;28;20545;-79
2022/06/10 05:51:56;;;;;;;4.30;3.60;;;13.50;99.90;;;;;;5024962;28;20955;-80
2022/06/10 05:54:24;;;;;;;4.83;4.43;;;13.60;99.90;;;;;;5026214;28;20545;-80
2022/06/10 05:56:51;;;;;;;7.57;3.80;;;13.80;99.90;;;;;;5026132;28;20478;-80
2022/06/10 05:59:19;;;;;;;4.20;3.10;;;13.90;99.90;;;;;;5026527;28;20813;-80
2022/06/10 06:01:46;;;;;;;8.17;3.73;;;13.90;99.90;;;;;;5025935;28;20455;-80
2022/06/10 06:04:13;;;;;;;4.80;3.10;;;14.00;99.90;;;;;;5025726;28;20487;-80
2022/06/10 06:06:43;;;;;;;3.47;3.17;;;14.20;99.90;;;;;;5025559;28;20664;-80
2022/06/10 06:09:14;;;;;;;5.00;3.30;;;14.30;99.90;;;;;;5027450;28;21019;-80
2022/06/10 06:11:41;;;;;;;6.47;3.93;;;14.30;99.90;;;;;;5027065;28;20473;-80
2022/06/10 06:14:08;;;;;;;6.53;3.60;;;14.40;99.90;;;;;;5027841;28;20446;-80
2022/06/10 06:16:35;;;;;;;3.70;3.50;;;14.50;99.90;;;;;;5026625;28;20491;-79
2022/06/10 06:19:02;;;;;;;4.63;4.10;;;14.60;99.90;;;;;;5028001;28;20457;-81
2022/06/10 06:21:29;;;;;;;4.10;3.87;;;14.60;99.90;;;;;;5026135;28;20455;-81
2022/06/10 06:23:57;;;;;;;4.03;3.63;;;14.80;99.90;;;;;;5026986;28;20517;-81
2022/06/10 06:26:23;;;;;;;4.00;3.63;;;14.80;99.90;;;;;;5027110;28;20450;-81
2022/06/10 06:28:50;;;;;;;3.87;3.20;;;14.90;99.90;;;;;;5027346;28;20458;-80
2022/06/10 06:31:17;;;;;;;3.20;3.00;;;15.00;99.90;;;;;;5020525;28;20451;-80
2022/06/10 06:33:44;;;;;;;3.40;3.10;;;15.10;99.90;;;;;;5020927;28;20454;-79
2022/06/10 06:36:18;;;;;;;4.07;3.60;;;15.20;99.90;;;;;;5022677;28;20447;-79
2022/06/10 06:38:44;;;;;;;9.13;3.73;;;15.20;99.90;;;;;;5023560;28;20457;-79
2022/06/10 06:41:12;;;;;;;5.77;3.50;;;15.30;99.90;;;;;;5022480;28;20470;-80
2022/06/10 06:43:39;;;;;;;5.63;4.37;;;15.40;99.90;;;;;;5021617;28;20446;-79
2022/06/10 06:46:06;;;;;;;3.37;3.07;;;15.50;99.90;;;;;;5020974;28;20485;-79
2022/06/10 06:48:33;;;;;;;4.73;2.83;;;15.60;99.90;;;;;;5022240;28;20450;-81
2022/06/10 06:51:00;;;;;;;4.27;3.87;;;15.70;99.90;;;;;;5022909;28;20466;-79
2022/06/10 06:53:26;;;;;;;4.40;3.87;;;15.70;99.90;;;;;;5021177;28;20835;-79
2022/06/10 06:55:53;;;;;;;6.60;4.27;;;15.60;99.90;;;;;;5021810;28;20446;-77
2022/06/10 06:58:21;;;;;;;3.37;3.17;;;15.60;99.90;;;;;;5017387;28;20451;-78
2022/06/10 07:00:48;;;;;;;3.00;2.37;;;15.80;99.90;;;;;;5025024;28;20473;-79
2022/06/10 07:03:16;;;;;;;3.63;3.10;;;16.00;99.90;;;;;;5027449;28;20980;-78
2022/06/10 07:05:43;;;;;;;4.73;4.20;;;16.10;99.90;;;;;;5027901;28;20482;-79
2022/06/10 07:08:10;;;;;;;4.20;2.90;;;16.30;99.90;;;;;;5024538;28;20477;-81
2022/06/10 07:10:38;;;;;;;5.57;3.53;;;16.40;99.90;;;;;;5026833;28;20474;-79
2022/06/10 07:13:04;;;;;;;5.80;3.57;;;16.50;99.90;;;;;;5026779;28;20467;-78
2022/06/10 07:15:33;;;;;;;4.20;3.80;;;16.60;99.90;;;;;;5018647;28;20454;-81
2022/06/10 07:18:00;;;;;;;4.40;3.47;;;16.70;99.90;;;;;;5020800;28;20456;-80
2022/06/10 07:20:31;;;;;;;3.43;3.07;;;16.80;99.90;;;;;;5024901;28;20477;-81
2022/06/10 07:22:59;;;;;;;5.03;3.20;;;16.80;99.90;;;;;;5024966;28;20457;-80
2022/06/10 07:25:26;;;;;;;5.13;4.13;;;16.90;99.90;;;;;;5020852;28;21166;-82
2022/06/10 07:27:55;;;;;;;5.30;3.37;;;17.00;99.90;;;;;;5026843;28;20451;-82
2022/06/10 07:30:25;;;;;;;7.33;3.10;;;17.10;99.90;;;;;;5022250;28;20481;-80
2022/06/10 07:32:57;;;;;;;4.87;3.10;;;17.10;99.90;;;;;;5006489;28;20468;-81
2022/06/10 07:35:24;;;;;;;3.73;3.00;;;17.20;99.90;;;;;;5024425;28;20479;-80
2022/06/10 07:37:51;;;;;;;3.43;3.13;;;17.30;99.90;;;;;;5025595;28;20457;-80
2022/06/10 07:43:07;;;;;;;6.57;3.30;;;17.10;99.90;;;;;;5006345;28;20428;-82
2022/06/10 07:45:40;;;;;;;5.70;2.90;;;17.20;99.90;;;;;;5002680;28;20488;-80
2022/06/10 07:48:29;;;;;;;6.10;3.20;;;17.20;99.90;;;;;;5009051;28;20464;-80
2022/06/10 07:50:56;;;;;;;4.27;2.63;;;17.40;99.90;;;;;;5025939;28;20472;-81
2022/06/10 07:53:22;;;;;;;4.30;3.90;;;17.40;99.90;;;;;;5030612;28;20460;-82
2022/06/10 07:55:49;;;;;;;7.67;3.20;;;17.50;99.90;;;;;;5027497;28;20448;-81
2022/06/10 07:58:20;;;;;;;10.03;3.83;;;17.70;99.90;;;;;;5028386;28;20448;-83
2022/06/10 08:00:48;;;;;;;3.70;3.40;;;17.80;99.90;;;;;;5028916;28;20480;-81
2022/06/10 08:03:15;;;;;;;3.80;3.50;;;17.80;99.90;;;;;;5030477;28;20828;-83
2022/06/10 08:05:43;;;;;;;4.03;3.20;;;17.60;99.90;;;;;;5032368;28;20495;-80
2022/06/10 08:08:14;;;;;;;3.40;3.20;;;17.60;99.90;;;;;;5025996;28;20452;-79
2022/06/10 08:10:41;;;;;;;4.30;3.60;;;17.40;99.90;;;;;;5025811;28;21251;-80
2022/06/10 08:13:08;;;;;;;4.33;3.20;;;17.50;99.90;;;;;;5027213;28;20532;-81
2022/06/10 08:15:36;;;;;;;5.83;3.07;;;17.60;99.90;;;;;;5028638;28;20808;-82
2022/06/10 08:18:04;;;;;;;4.63;3.20;;;17.80;99.90;;;;;;5029185;28;20449;-81
2022/06/10 08:23:21;;;;;;;2.90;2.53;;;18.20;99.90;;;;;;5029882;28;20447;-80
2022/06/10 08:25:49;;;;;;;3.50;3.20;;;18.20;99.90;;;;;;5026680;28;20485;-79
2022/06/10 08:28:16;;;;;;;3.23;3.00;;;18.20;99.90;;;;;;5024505;28;20450;-81
2022/06/10 08:30:43;;;;;;;5.30;2.57;;;18.30;98.50;;;;;;5026277;28;20495;-82
2022/06/10 08:33:10;;;;;;;2.50;2.30;;;18.30;99.90;;;;;;5025577;28;20978;-81
2022/06/10 08:35:37;;;;;;;4.13;3.00;;;18.40;99.90;;;;;;5027970;28;20457;-83
2022/06/10 08:38:08;;;;;;;3.60;3.30;;;18.60;99.90;;;;;;5028203;28;20480;-82
2022/06/10 08:40:47;;;;;;;6.33;3.63;;;18.70;99.90;;;;;;5030477;28;20473;-80
2022/06/10 08:43:34;;;;;;;5.37;3.70;;;18.70;99.90;;;;;;5027402;28;20450;-80
2022/06/10 08:46:10;;;;;;;3.10;2.80;;;18.90;99.90;;;;;;5028315;28;21073;-81
2022/06/10 08:48:51;;;;;;;4.03;2.97;;;18.90;99.90;;;;;;5022653;28;20524;-83
2022/06/10 08:51:25;;;;;;;5.10;3.17;;;19.00;99.80;;;;;;5018552;28;20476;-81
2022/06/10 08:54:14;;;;;;;10.23;2.87;;;19.00;99.00;;;;;;5015977;28;20467;-81
2022/06/10 08:56:45;;;;;;;4.93;4.43;;;19.20;99.30;;;;;;5034965;22;20537;-83
2022/06/10 08:59:25;;;;;;;3.53;3.23;;;19.30;98.40;;;;;;5029957;28;20464;-83
2022/06/10 09:02:00;;;;;;;2.77;2.57;;;19.30;97.90;;;;;;5025956;28;20464;-84
2022/06/10 09:04:34;;;;;;;6.03;2.53;;;19.30;96.80;;;;;;5039197;28;20535;-84
2022/06/10 09:07:06;;;;;;;4.03;3.47;;;19.50;97.00;;;;;;5048859;28;20495;-83
2022/06/10 09:09:34;;;;;;;5.27;2.70;;;19.50;96.90;;;;;;5048863;28;20460;-82
2022/06/10 09:12:07;;;;;;;3.10;2.30;;;19.40;96.90;;;;;;5040160;28;20544;-83
2022/06/10 09:14:35;;;;;;;7.57;2.53;;;19.60;97.40;;;;;;5038693;28;20450;-83
2022/06/10 09:17:10;;;;;;;6.40;3.00;;;19.90;97.10;;;;;;5026842;28;20467;-83
2022/06/10 09:19:47;;;;;;;5.60;3.00;;;20.20;97.50;;;;;;5022799;28;20457;-84
2022/06/10 09:22:21;;;;;;;3.10;2.50;;;20.40;96.40;;;;;;5021950;28;20501;-84
2022/06/10 09:24:54;;;;;;;5.80;2.60;;;20.50;95.30;;;;;;5023823;28;20933;-83
2022/06/10 09:27:28;;;;;;;3.80;2.33;;;20.50;94.50;;;;;;5024938;28;20565;-84
2022/06/10 09:43:45;;;;;;;3.63;2.10;;;21.60;92.70;;;;;;5004039;28;20435;-84
2022/06/10 09:46:29;;;;;;;3.57;2.50;;;21.80;92.00;;;;;;5023969;28;20491;-82
2022/06/10 09:49:14;;;;;;;3.43;1.60;;;22.10;92.00;;;;;;5040838;28;20455;-84
2022/06/10 09:55:31;;;;;;;2.43;1.73;;;22.40;82.90;;;;;;5028645;28;20404;-83
2022/06/10 09:58:14;;;;;;;1.60;1.47;;;22.20;85.70;;;;;;5011364;28;20504;-85
2022/06/10 10:11:19;;;;;;;2.03;1.93;;;22.70;83.20;;;;;;4892593;29;20505;-85
2022/06/10 10:24:16;;;;;;;2.83;2.00;;;23.60;80.80;;;;;;4893139;29;20443;-85
2022/06/10 10:27:20;;;;;;;2.80;2.13;;;23.80;78.20;;;;;;4903395;29;20495;-85
2022/06/10 10:29:56;;;;;;;4.50;2.53;;;24.00;77.10;;;;;;4977946;28;20847;-85
2022/06/10 10:32:27;;;;;;;3.33;2.20;;;23.70;77.70;;;;;;5017895;28;20448;-85
2022/06/10 10:35:03;;;;;;;7.13;2.43;;;23.90;75.90;;;;;;5021691;28;20452;-84
2022/06/10 10:44:39;;;;;;;3.60;1.77;;;24.50;78.90;;;;;;4939697;28;20563;-83
2022/06/10 10:47:18;;;;;;;4.00;3.27;;;24.50;72.40;;;;;;5017104;28;20497;-83
2022/06/10 11:07:22;;;;;;;2.90;2.43;;;24.30;76.80;;;;;;4929249;29;20480;-85
2022/06/10 11:26:49;;;;;;;4.87;2.73;;;24.10;75.30;;;;;;4874955;29;20490;-84
2022/06/10 11:29:16;;;;;;;5.37;2.70;;;24.10;74.80;;;;;;4912007;29;20468;-80
2022/06/10 11:31:47;;;;;;;3.30;3.00;;;24.20;74.50;;;;;;4957126;28;20464;-80
2022/06/10 11:34:18;;;;;;;2.20;2.10;;;24.10;74.40;;;;;;5025635;28;20458;-84
2022/06/10 11:36:48;;;;;;;2.20;1.93;;;24.40;76.70;;;;;;5043962;28;20503;-83
2022/06/10 11:39:19;;;;;;;3.03;2.83;;;25.00;76.40;;;;;;5040538;28;20453;-83
2022/06/10 11:42:07;;;;;;;3.03;2.10;;;25.60;75.10;;;;;;5033800;28;20564;-82
2022/06/10 11:44:39;;;;;;;5.67;2.53;;;25.70;70.60;;;;;;5042298;28;20466;-81
2022/06/10 11:47:13;;;;;;;3.43;2.03;;;25.90;70.00;;;;;;5040859;28;20482;-83
2022/06/10 11:49:44;;;;;;;3.93;2.70;;;25.70;69.20;;;;;;5041337;28;20459;-84
2022/06/10 11:52:16;;;;;;;4.33;2.10;;;24.90;70.60;;;;;;5031378;28;20455;-84
2022/06/10 11:54:50;;;;;;;2.53;1.90;;;24.70;72.70;;;;;;5024214;28;20815;-84
2022/06/10 12:00:18;;;;;;;2.83;2.30;;;25.00;68.90;;;;;;5037800;28;20571;-81
2022/06/10 12:02:51;;;;;;;3.27;2.60;;;25.50;70.60;;;;;;5026709;28;20464;-85
2022/06/10 12:05:35;;;;;;;2.20;2.00;;;26.10;70.30;;;;;;5043064;28;20480;-85
2022/06/10 12:08:09;;;;;;;3.10;2.80;;;26.90;63.80;;;;;;5046149;28;20518;-85
2022/06/10 12:10:52;;;;;;;3.00;2.00;;;27.30;63.70;;;;;;5022192;28;20489;-82
2022/06/10 12:13:21;;;;;;;2.20;1.97;;;27.60;60.70;;;;;;5024518;28;20534;-82
2022/06/10 12:36:01;;;;;;;1.80;1.70;;;31.50;49.80;;;;;;4981396;28;20482;-85
2022/06/10 12:39:00;;;;;;;3.77;1.90;;;30.40;49.30;;;;;;4991539;28;20472;-85
2022/06/10 12:41:41;;;;;;;2.67;1.70;;;29.70;51.30;;;;;;4979102;28;20955;-85
2022/06/10 12:44:14;;;;;;;2.30;1.77;;;30.20;51.00;;;;;;4984404;28;20994;-85
2022/06/10 12:46:47;;;;;;;3.23;1.53;;;31.30;53.50;;;;;;5008835;28;20473;-83
2022/06/10 12:49:21;;;;;;;2.70;1.97;;;32.00;48.30;;;;;;5024781;28;20487;-82
2022/06/10 12:59:11;;;;;;;2.10;1.80;;;33.30;43.90;;;;;;5018034;28;20476;-86
2022/06/10 13:01:45;;;;;;;1.53;1.33;;;33.60;43.50;;;;;;5026373;28;20460;-86
2022/06/10 13:04:59;;;;;;;2.57;1.70;;;34.40;43.60;;;;;;5017425;28;20993;-84
2022/06/10 13:07:30;;;;;;;2.00;1.40;;;35.10;40.70;;;;;;5019792;28;20474;-84
2022/06/10 13:10:43;;;;;;;1.57;1.40;;;35.50;40.90;;;;;;5025678;28;20544;-86
2022/06/10 13:13:16;;;;;;;1.70;1.50;;;35.80;42.00;;;;;;5041123;28;20445;-85
2022/06/10 13:15:45;;;;;;;3.03;1.57;;;36.10;38.10;;;;;;5036135;28;20473;-85
2022/06/10 13:18:28;;;;;;;2.10;1.40;;;35.50;37.70;;;;;;5036034;28;20465;-84
2022/06/10 13:20:55;;;;;;;1.73;1.50;;;34.00;37.20;;;;;;5031820;28;20460;-85
2022/06/10 13:23:24;;;;;;;1.73;1.63;;;34.10;40.60;;;;;;5036639;28;20457;-85
2022/06/10 13:26:12;;;;;;;1.93;1.40;;;35.00;40.10;;;;;;5035876;28;20461;-84
2022/06/10 13:28:42;;;;;;;3.27;2.23;;;35.70;37.70;;;;;;5036007;28;20457;-83
2022/06/10 13:31:18;;;;;;;2.43;1.30;;;36.30;36.70;;;;;;5027925;28;20446;-83
2022/06/10 13:34:00;;;;;;;1.67;1.30;;;36.40;36.50;;;;;;5015884;28;20923;-83
2022/06/10 13:36:31;;;;;;;2.47;1.27;;;36.30;35.10;;;;;;5015710;28;20565;-83
2022/06/10 13:38:58;;;;;;;2.27;2.07;;;35.90;35.60;;;;;;5034768;28;20456;-83
2022/06/10 13:44:34;;;;;;;1.77;1.67;;;34.50;36.40;;;;;;5036833;28;20460;-85
2022/06/10 14:29:23;;;;;;;1.27;1.17;;;34.40;36.30;;;;;;4976014;28;20447;-84
2022/06/10 15:17:37;;;;;;;1.33;1.20;;;32.90;35.20;;;;;;4808433;29;20509;-85
2022/06/10 15:43:33;;;;;;;3.00;1.50;;;37.50;29.50;;;;;;4878118;29;20457;-85
2022/06/10 15:46:00;;;;;;;3.40;1.50;;;37.40;29.30;;;;;;4969337;28;20902;-87
2022/06/10 15:48:27;;;;;;;2.53;1.50;;;36.50;30.00;;;;;;4973690;28;20479;-84
2022/06/10 15:50:58;;;;;;;1.47;1.40;;;35.50;31.10;;;;;;4969928;28;20471;-84
2022/06/10 15:53:28;;;;;;;1.30;1.20;;;34.40;32.20;;;;;;5009509;28;20457;-85
2022/06/10 15:58:42;;;;;;;2.27;1.70;;;32.10;34.50;;;;;;5010386;28;20480;-84
2022/06/10 16:01:11;;;;;;;2.53;1.43;;;31.10;36.40;;;;;;5018276;28;20447;-84
2022/06/10 16:03:38;;;;;;;1.60;1.50;;;30.60;37.10;;;;;;5016472;28;20452;-83
2022/06/10 16:06:10;;;;;;;3.13;1.90;;;30.90;37.90;;;;;;5018047;28;20503;-84
2022/06/10 16:08:36;;;;;;;2.70;1.83;;;31.70;38.20;;;;;;5005801;28;20519;-82
2022/06/10 16:11:03;;;;;;;2.03;1.60;;;32.40;37.30;;;;;;4998086;28;20460;-84
2022/06/10 16:13:38;;;;;;;2.60;2.00;;;32.40;37.50;;;;;;5008286;28;20464;-84
2022/06/10 16:16:06;;;;;;;2.90;1.73;;;31.90;38.10;;;;;;5017571;28;20491;-83
2022/06/10 16:18:35;;;;;;;2.07;1.97;;;31.20;38.50;;;;;;5010508;28;20512;-83
2022/06/10 16:21:04;;;;;;;2.50;1.60;;;30.30;39.30;;;;;;5011601;28;20821;-84
2022/06/10 16:23:36;;;;;;;4.50;2.00;;;29.80;41.10;;;;;;5000384;28;20459;-84
2022/06/10 16:26:05;;;;;;;2.23;1.80;;;29.00;41.20;;;;;;5018633;28;20469;-83
2022/06/10 16:28:39;;;;;;;1.67;1.57;;;28.60;41.70;;;;;;5017150;28;20564;-84
2022/06/10 16:31:06;;;;;;;2.47;2.27;;;28.30;43.20;;;;;;5018155;28;20466;-83
2022/06/10 16:33:33;;;;;;;1.93;1.60;;;28.10;44.00;;;;;;5015070;28;20464;-84
2022/06/10 16:36:00;;;;;;;2.40;2.20;;;28.10;43.70;;;;;;5000324;28;20441;-83
2022/06/10 16:38:29;;;;;;;1.53;1.43;;;28.00;43.90;;;;;;5015208;28;20472;-84
2022/06/10 16:40:59;;;;;;;2.40;2.03;;;28.00;44.50;;;;;;5015712;28;20464;-84
2022/06/10 16:43:31;;;;;;;2.27;2.00;;;28.00;44.20;;;;;;5019198;28;20977;-84
2022/06/10 16:45:58;;;;;;;1.57;1.47;;;28.30;44.00;;;;;;5005738;28;20457;-83
2022/06/10 16:48:27;;;;;;;3.30;1.80;;;28.60;42.90;;;;;;5006383;28;20473;-86
2022/06/10 16:50:56;;;;;;;3.57;2.37;;;29.10;42.60;;;;;;5009946;28;20451;-83
2022/06/10 16:53:23;;;;;;;1.60;1.50;;;29.80;43.00;;;;;;5016747;28;20454;-85
2022/06/10 16:55:50;;;;;;;1.70;1.60;;;30.50;41.70;;;;;;5031607;28;20808;-85
2022/06/10 16:58:22;;;;;;;1.80;1.70;;;30.90;41.60;;;;;;5030734;28;20513;-85
2022/06/10 17:00:50;;;;;;;2.57;2.37;;;31.00;40.60;;;;;;5030779;28;20443;-85
2022/06/10 17:03:17;;;;;;;2.10;1.90;;;30.90;40.60;;;;;;5028565;28;20488;-85
2022/06/10 17:05:47;;;;;;;2.90;2.70;;;30.90;39.40;;;;;;5031563;28;20484;-85
2022/06/10 17:08:18;;;;;;;11.27;10.20;;;31.30;39.20;;;;;;5025702;28;20463;-84